sensor_id;sensor_type;location;lat;lon;timestamp;pressure;altitude;pressure_sealevel;temperature;humidity
9091;BME280;4581;42.416;25.598;2022-09-17T00:01:28;97489.06;;;23.10;67.96
9091;BME280;4581;42.416;25.598;2022-09-17T00:04:02;97449.81;;;22.95;68.24
9091;BME280;4581;42.416;25.598;2022-09-17T00:06:32;97482.97;;;23.18;68.08
9091;BME280;4581;42.416;25.598;2022-09-17T00:09:00;97470.56;;;23.26;68.48
9091;BME280;4581;42.416;25.598;2022-09-17T00:11:40;97453.00;;;23.17;68.33
9091;BME280;4581;42.416;25.598;2022-09-17T00:14:11;97472.22;;;23.27;68.49
9091;BME280;4581;42.416;25.598;2022-09-17T00:16:42;97470.81;;;23.29;68.79
9091;BME280;4581;42.416;25.598;2022-09-17T00:19:15;97462.56;;;23.29;68.73
9091;BME280;4581;42.416;25.598;2022-09-17T00:21:42;97472.13;;;23.37;68.52
9091;BME280;4581;42.416;25.598;2022-09-17T00:24:13;97475.72;;;23.38;68.31
9091;BME280;4581;42.416;25.598;2022-09-17T00:26:40;97475.41;;;23.39;68.47
9091;BME280;4581;42.416;25.598;2022-09-17T00:29:09;97424.16;;;23.09;68.68
9091;BME280;4581;42.416;25.598;2022-09-17T00:31:36;97442.53;;;23.19;68.98
9091;BME280;4581;42.416;25.598;2022-09-17T00:34:05;97465.56;;;23.33;69.64
9091;BME280;4581;42.416;25.598;2022-09-17T00:36:37;97470.81;;;23.29;70.04
9091;BME280;4581;42.416;25.598;2022-09-17T00:39:07;97422.56;;;22.98;70.77
9091;BME280;4581;42.416;25.598;2022-09-17T00:41:36;97450.81;;;23.14;71.00
9091;BME280;4581;42.416;25.598;2022-09-17T00:47:14;97451.63;;;23.14;70.79
9091;BME280;4581;42.416;25.598;2022-09-17T00:49:42;97434.91;;;23.01;70.83
9091;BME280;4581;42.416;25.598;2022-09-17T00:52:14;97446.16;;;23.09;69.97
9091;BME280;4581;42.416;25.598;2022-09-17T00:54:43;97440.16;;;23.02;70.19
9091;BME280;4581;42.416;25.598;2022-09-17T00:57:12;97453.06;;;23.07;70.21
9091;BME280;4581;42.416;25.598;2022-09-17T00:59:39;97441.81;;;22.98;70.65
9091;BME280;4581;42.416;25.598;2022-09-17T01:02:06;97454.16;;;23.01;70.98
9091;BME280;4581;42.416;25.598;2022-09-17T01:04:33;97467.63;;;23.02;72.06
9091;BME280;4581;42.416;25.598;2022-09-17T01:13:05;97457.75;;;22.96;72.57
9091;BME280;4581;42.416;25.598;2022-09-17T01:15:45;97458.06;;;22.84;73.13
9091;BME280;4581;42.416;25.598;2022-09-17T01:23:57;97441.91;;;22.63;73.99
9091;BME280;4581;42.416;25.598;2022-09-17T01:34:56;97450.47;;;22.41;75.86
9091;BME280;4581;42.416;25.598;2022-09-17T01:37:32;97429.59;;;22.40;75.69
9091;BME280;4581;42.416;25.598;2022-09-17T01:40:09;97447.47;;;22.37;75.44
9091;BME280;4581;42.416;25.598;2022-09-17T01:45:31;97438.13;;;22.23;76.21
9091;BME280;4581;42.416;25.598;2022-09-17T01:50:44;97423.59;;;22.18;76.76
9091;BME280;4581;42.416;25.598;2022-09-17T01:53:14;97432.94;;;22.17;77.05
9091;BME280;4581;42.416;25.598;2022-09-17T01:55:44;97424.97;;;22.20;76.76
9091;BME280;4581;42.416;25.598;2022-09-17T01:58:22;97408.47;;;22.20;75.55
9091;BME280;4581;42.416;25.598;2022-09-17T02:00:58;97427.97;;;22.34;76.30
9091;BME280;4581;42.416;25.598;2022-09-17T02:03:40;97411.53;;;22.09;76.68
9091;BME280;4581;42.416;25.598;2022-09-17T02:06:16;97421.13;;;22.01;76.90
9091;BME280;4581;42.416;25.598;2022-09-17T02:09:12;97414.25;;;22.04;77.45
9091;BME280;4581;42.416;25.598;2022-09-17T02:11:45;97392.28;;;21.83;77.17
9091;BME280;4581;42.416;25.598;2022-09-17T02:14:22;97400.00;;;21.81;77.60
9091;BME280;4581;42.416;25.598;2022-09-17T02:16:54;97406.00;;;21.83;77.45
9091;BME280;4581;42.416;25.598;2022-09-17T02:19:33;97406.28;;;21.77;78.35
9091;BME280;4581;42.416;25.598;2022-09-17T02:27:37;97409.31;;;21.60;79.58
9091;BME280;4581;42.416;25.598;2022-09-17T02:30:16;97401.91;;;21.45;80.10
9091;BME280;4581;42.416;25.598;2022-09-17T02:32:43;97396.66;;;21.39;80.34
9091;BME280;4581;42.416;25.598;2022-09-17T02:35:11;97405.72;;;21.34;80.45
9091;BME280;4581;42.416;25.598;2022-09-17T02:37:43;97418.31;;;21.35;80.71
9091;BME280;4581;42.416;25.598;2022-09-17T02:40:12;97385.41;;;21.20;80.41
9091;BME280;4581;42.416;25.598;2022-09-17T02:42:58;97409.28;;;21.30;81.09
9091;BME280;4581;42.416;25.598;2022-09-17T02:57:50;97385.34;;;21.05;81.80
9091;BME280;4581;42.416;25.598;2022-09-17T03:02:42;97380.91;;;20.89;82.70
9091;BME280;4581;42.416;25.598;2022-09-17T03:05:17;97378.72;;;20.96;82.81
9091;BME280;4581;42.416;25.598;2022-09-17T03:07:44;97374.34;;;20.90;82.98
9091;BME280;4581;42.416;25.598;2022-09-17T03:10:12;97364.72;;;20.87;83.38
9091;BME280;4581;42.416;25.598;2022-09-17T03:12:39;97365.00;;;20.86;83.53
9091;BME280;4581;42.416;25.598;2022-09-17T03:15:06;97377.94;;;21.00;82.61
9091;BME280;4581;42.416;25.598;2022-09-17T03:17:36;97370.50;;;20.86;83.19
9091;BME280;4581;42.416;25.598;2022-09-17T03:20:03;97361.16;;;20.87;83.40
9091;BME280;4581;42.416;25.598;2022-09-17T03:22:30;97337.59;;;20.81;83.06
9091;BME280;4581;42.416;25.598;2022-09-17T03:24:57;97357.91;;;20.95;83.53
9091;BME280;4581;42.416;25.598;2022-09-17T03:27:23;97342.22;;;20.75;83.25
9091;BME280;4581;42.416;25.598;2022-09-17T03:29:50;97337.56;;;20.76;83.63
9091;BME280;4581;42.416;25.598;2022-09-17T03:32:17;97351.84;;;20.78;84.05
9091;BME280;4581;42.416;25.598;2022-09-17T03:34:46;97352.66;;;20.73;84.35
9091;BME280;4581;42.416;25.598;2022-09-17T03:37:14;97356.47;;;20.72;84.51
9091;BME280;4581;42.416;25.598;2022-09-17T03:39:41;97352.06;;;20.71;84.66
9091;BME280;4581;42.416;25.598;2022-09-17T03:42:08;97353.47;;;20.79;84.36
9091;BME280;4581;42.416;25.598;2022-09-17T03:44:34;97337.56;;;20.71;84.28
9091;BME280;4581;42.416;25.598;2022-09-17T03:47:01;97326.84;;;20.59;85.29
9091;BME280;4581;42.416;25.598;2022-09-17T03:49:27;97319.13;;;20.51;85.32
9091;BME280;4581;42.416;25.598;2022-09-17T03:51:54;97305.44;;;20.46;85.51
9091;BME280;4581;42.416;25.598;2022-09-17T03:54:22;97324.91;;;20.54;85.48
9091;BME280;4581;42.416;25.598;2022-09-17T03:56:49;97303.47;;;20.36;86.06
9091;BME280;4581;42.416;25.598;2022-09-17T03:59:15;97316.69;;;20.54;85.50
9091;BME280;4581;42.416;25.598;2022-09-17T04:01:42;97301.06;;;20.55;84.65
9091;BME280;4581;42.416;25.598;2022-09-17T04:04:09;97296.16;;;20.52;84.91
9091;BME280;4581;42.416;25.598;2022-09-17T04:06:37;97322.19;;;20.60;85.23
9091;BME280;4581;42.416;25.598;2022-09-17T04:09:06;97304.06;;;20.48;85.71
9091;BME280;4581;42.416;25.598;2022-09-17T04:11:34;97288.69;;;20.32;85.89
9091;BME280;4581;42.416;25.598;2022-09-17T04:14:02;97278.28;;;20.29;86.06
9091;BME280;4581;42.416;25.598;2022-09-17T04:16:28;97313.34;;;20.42;86.26
9091;BME280;4581;42.416;25.598;2022-09-17T04:18:55;97313.34;;;20.42;86.64
9091;BME280;4581;42.416;25.598;2022-09-17T04:21:22;97285.94;;;20.32;86.24
9091;BME280;4581;42.416;25.598;2022-09-17T04:23:49;97315.84;;;20.49;86.55
9091;BME280;4581;42.416;25.598;2022-09-17T04:26:16;97305.19;;;20.52;86.69
9091;BME280;4581;42.416;25.598;2022-09-17T04:28:42;97303.81;;;20.55;86.10
9091;BME280;4581;42.416;25.598;2022-09-17T04:31:10;97298.63;;;20.59;86.54
9091;BME280;4581;42.416;25.598;2022-09-17T04:33:37;97273.97;;;20.53;86.22
9091;BME280;4581;42.416;25.598;2022-09-17T04:36:04;97270.09;;;20.44;86.76
9091;BME280;4581;42.416;25.598;2022-09-17T04:38:30;97273.41;;;20.51;87.18
9091;BME280;4581;42.416;25.598;2022-09-17T04:40:59;97297.00;;;20.58;87.13
9091;BME280;4581;42.416;25.598;2022-09-17T04:43:26;97303.88;;;20.70;86.66
9091;BME280;4581;42.416;25.598;2022-09-17T04:45:53;97300.31;;;20.70;86.69
9091;BME280;4581;42.416;25.598;2022-09-17T04:48:19;97313.50;;;20.93;87.02
9091;BME280;4581;42.416;25.598;2022-09-17T04:50:51;97303.66;;;20.97;86.92
9091;BME280;4581;42.416;25.598;2022-09-17T04:53:18;97300.38;;;21.05;86.90
9091;BME280;4581;42.416;25.598;2022-09-17T04:55:50;97326.75;;;21.36;86.27
9091;BME280;4581;42.416;25.598;2022-09-17T04:58:17;97320.16;;;21.32;86.14
9091;BME280;4581;42.416;25.598;2022-09-17T05:00:43;97314.41;;;21.29;86.27
9091;BME280;4581;42.416;25.598;2022-09-17T05:03:10;97310.28;;;21.36;86.01
9091;BME280;4581;42.416;25.598;2022-09-17T05:05:37;97306.72;;;21.26;85.95
9091;BME280;4581;42.416;25.598;2022-09-17T05:08:04;97317.69;;;21.51;85.25
9091;BME280;4581;42.416;25.598;2022-09-17T05:10:32;97304.53;;;21.48;85.87
9091;BME280;4581;42.416;25.598;2022-09-17T05:13:02;97306.72;;;21.51;86.33
9091;BME280;4581;42.416;25.598;2022-09-17T05:15:29;97333.88;;;21.78;86.36
9091;BME280;4581;42.416;25.598;2022-09-17T05:17:57;97316.00;;;21.80;85.72
9091;BME280;4581;42.416;25.598;2022-09-17T05:20:24;97324.50;;;21.89;85.61
9091;BME280;4581;42.416;25.598;2022-09-17T05:22:51;97313.53;;;21.84;85.28
9091;BME280;4581;42.416;25.598;2022-09-17T05:25:23;97335.47;;;21.99;84.31
9091;BME280;4581;42.416;25.598;2022-09-17T05:27:51;97301.47;;;21.90;83.87
9091;BME280;4581;42.416;25.598;2022-09-17T05:30:20;97340.09;;;22.29;83.13
9091;BME280;4581;42.416;25.598;2022-09-17T05:32:47;97333.94;;;22.52;82.13
9091;BME280;4581;42.416;25.598;2022-09-17T05:35:15;97305.03;;;22.65;78.65
9091;BME280;4581;42.416;25.598;2022-09-17T05:37:42;97299.13;;;22.92;78.38
9091;BME280;4581;42.416;25.598;2022-09-17T05:40:09;97304.22;;;23.13;77.28
9091;BME280;4581;42.416;25.598;2022-09-17T05:42:36;97306.00;;;23.33;75.19
9091;BME280;4581;42.416;25.598;2022-09-17T05:45:03;97315.41;;;23.66;73.52
9091;BME280;4581;42.416;25.598;2022-09-17T05:47:31;97311.03;;;23.89;73.33
9091;BME280;4581;42.416;25.598;2022-09-17T05:49:58;97303.38;;;24.09;71.75
9091;BME280;4581;42.416;25.598;2022-09-17T05:52:27;97296.03;;;24.29;70.48
9091;BME280;4581;42.416;25.598;2022-09-17T05:54:56;97316.44;;;24.51;71.31
9091;BME280;4581;42.416;25.598;2022-09-17T05:57:23;97316.97;;;24.72;69.60
9091;BME280;4581;42.416;25.598;2022-09-17T05:59:50;97313.84;;;25.02;68.87
9091;BME280;4581;42.416;25.598;2022-09-17T06:02:16;97321.16;;;25.31;67.21
9091;BME280;4581;42.416;25.598;2022-09-17T06:04:44;97303.41;;;25.18;66.66
9091;BME280;4581;42.416;25.598;2022-09-17T06:07:11;97350.03;;;25.52;66.05
9091;BME280;4581;42.416;25.598;2022-09-17T06:09:38;97326.25;;;25.56;65.88
9091;BME280;4581;42.416;25.598;2022-09-17T06:12:08;97322.31;;;25.62;64.42
9091;BME280;4581;42.416;25.598;2022-09-17T06:14:35;97350.69;;;25.81;65.89
9091;BME280;4581;42.416;25.598;2022-09-17T06:17:02;97356.16;;;25.86;63.28
9091;BME280;4581;42.416;25.598;2022-09-17T06:19:31;97355.75;;;25.60;66.01
9091;BME280;4581;42.416;25.598;2022-09-17T06:21:58;97329.09;;;25.70;64.75
9091;BME280;4581;42.416;25.598;2022-09-17T06:24:27;97331.78;;;25.88;63.25
9091;BME280;4581;42.416;25.598;2022-09-17T06:26:57;97327.41;;;25.87;63.73
9091;BME280;4581;42.416;25.598;2022-09-17T06:29:24;97342.53;;;26.22;64.54
9091;BME280;4581;42.416;25.598;2022-09-17T06:31:50;97306.44;;;25.86;62.66
9091;BME280;4581;42.416;25.598;2022-09-17T06:34:19;97351.31;;;26.24;64.55
9091;BME280;4581;42.416;25.598;2022-09-17T06:36:47;97328.94;;;25.93;63.09
9091;BME280;4581;42.416;25.598;2022-09-17T06:39:14;97332.75;;;25.97;65.96
9091;BME280;4581;42.416;25.598;2022-09-17T06:41:41;97368.22;;;25.90;65.57
9091;BME280;4581;42.416;25.598;2022-09-17T06:44:11;97367.97;;;26.05;66.05
9091;BME280;4581;42.416;25.598;2022-09-17T06:46:38;97356.66;;;26.21;64.61
9091;BME280;4581;42.416;25.598;2022-09-17T06:49:07;97357.31;;;26.13;69.04
9091;BME280;4581;42.416;25.598;2022-09-17T06:51:34;97370.81;;;26.46;62.77
9091;BME280;4581;42.416;25.598;2022-09-17T06:54:01;97348.59;;;26.38;62.43
9091;BME280;4581;42.416;25.598;2022-09-17T06:56:29;97359.16;;;26.36;63.88
9091;BME280;4581;42.416;25.598;2022-09-17T06:58:56;97352.34;;;26.28;63.35
9091;BME280;4581;42.416;25.598;2022-09-17T07:01:23;97373.75;;;26.23;64.58
9091;BME280;4581;42.416;25.598;2022-09-17T07:03:50;97352.59;;;26.45;63.62
9091;BME280;4581;42.416;25.598;2022-09-17T07:06:16;97372.84;;;26.41;63.80
9091;BME280;4581;42.416;25.598;2022-09-17T07:08:43;97388.44;;;26.50;65.68
9091;BME280;4581;42.416;25.598;2022-09-17T07:11:10;97356.56;;;26.53;62.48
9091;BME280;4581;42.416;25.598;2022-09-17T07:13:37;97371.13;;;26.72;63.64
9091;BME280;4581;42.416;25.598;2022-09-17T07:16:04;97375.75;;;27.04;62.87
9091;BME280;4581;42.416;25.598;2022-09-17T07:18:32;97376.25;;;26.92;62.80
9091;BME280;4581;42.416;25.598;2022-09-17T07:21:02;97384.41;;;27.25;63.08
9091;BME280;4581;42.416;25.598;2022-09-17T07:23:31;97389.03;;;27.65;61.56
9091;BME280;4581;42.416;25.598;2022-09-17T07:26:02;97386.66;;;27.95;59.56
9091;BME280;4581;42.416;25.598;2022-09-17T07:28:30;97393.56;;;28.06;58.72
9091;BME280;4581;42.416;25.598;2022-09-17T07:30:57;97387.63;;;27.68;59.11
9091;BME280;4581;42.416;25.598;2022-09-17T07:33:26;97376.28;;;27.42;60.28
9091;BME280;4581;42.416;25.598;2022-09-17T07:36:00;97396.47;;;27.56;58.89
9091;BME280;4581;42.416;25.598;2022-09-17T07:38:29;97389.34;;;27.28;59.33
9091;BME280;4581;42.416;25.598;2022-09-17T07:41:05;97392.44;;;27.62;62.43
9091;BME280;4581;42.416;25.598;2022-09-17T07:43:42;97393.19;;;27.54;60.05
9091;BME280;4581;42.416;25.598;2022-09-17T07:46:15;97392.06;;;27.77;59.00
9091;BME280;4581;42.416;25.598;2022-09-17T07:48:42;97356.81;;;27.69;59.52
9091;BME280;4581;42.416;25.598;2022-09-17T07:51:21;97363.06;;;27.75;59.93
9091;BME280;4581;42.416;25.598;2022-09-17T07:53:53;97365.53;;;27.76;59.21
9091;BME280;4581;42.416;25.598;2022-09-17T07:56:21;97372.56;;;27.82;58.58
9091;BME280;4581;42.416;25.598;2022-09-17T07:58:51;97355.88;;;27.74;59.03
9091;BME280;4581;42.416;25.598;2022-09-17T08:01:18;97332.75;;;27.78;59.53
9091;BME280;4581;42.416;25.598;2022-09-17T08:03:54;97351.34;;;28.00;56.94
9091;BME280;4581;42.416;25.598;2022-09-17T08:06:24;97353.47;;;28.03;58.44
9091;BME280;4581;42.416;25.598;2022-09-17T08:08:58;97378.09;;;28.27;57.31
9091;BME280;4581;42.416;25.598;2022-09-17T08:11:29;97367.13;;;28.22;57.57
9091;BME280;4581;42.416;25.598;2022-09-17T08:14:16;97351.25;;;28.14;58.56
9091;BME280;4581;42.416;25.598;2022-09-17T08:16:43;97339.19;;;28.10;57.45
9091;BME280;4581;42.416;25.598;2022-09-17T08:19:14;97346.25;;;28.16;57.97
9091;BME280;4581;42.416;25.598;2022-09-17T08:21:41;97342.03;;;28.05;57.26
9091;BME280;4581;42.416;25.598;2022-09-17T08:24:08;97336.91;;;27.89;59.02
9091;BME280;4581;42.416;25.598;2022-09-17T08:26:35;97352.53;;;27.85;59.77
9091;BME280;4581;42.416;25.598;2022-09-17T08:29:01;97346.50;;;27.83;58.78
9091;BME280;4581;42.416;25.598;2022-09-17T08:31:28;97337.03;;;27.62;57.60
9091;BME280;4581;42.416;25.598;2022-09-17T08:33:56;97331.28;;;27.72;59.01
9091;BME280;4581;42.416;25.598;2022-09-17T08:36:23;97349.56;;;27.82;58.83
9091;BME280;4581;42.416;25.598;2022-09-17T08:38:53;97354.94;;;27.78;58.95
9091;BME280;4581;42.416;25.598;2022-09-17T08:41:32;97323.84;;;27.59;59.50
9091;BME280;4581;42.416;25.598;2022-09-17T08:46:49;97312.47;;;27.69;58.49
9091;BME280;4581;42.416;25.598;2022-09-17T09:00:23;97320.09;;;28.39;59.78
9091;BME280;4581;42.416;25.598;2022-09-17T09:05:55;97329.59;;;28.95;56.49
9091;BME280;4581;42.416;25.598;2022-09-17T09:08:45;97320.59;;;28.80;58.42
9091;BME280;4581;42.416;25.598;2022-09-17T09:11:23;97322.38;;;28.85;59.63
9091;BME280;4581;42.416;25.598;2022-09-17T09:14:20;97332.47;;;28.72;56.53
9091;BME280;4581;42.416;25.598;2022-09-17T09:16:50;97329.41;;;28.82;56.58
9091;BME280;4581;42.416;25.598;2022-09-17T09:22:00;97335.31;;;29.07;58.23
9091;BME280;4581;42.416;25.598;2022-09-17T09:24:40;97340.44;;;29.31;57.68
9091;BME280;4581;42.416;25.598;2022-09-17T09:27:27;97329.50;;;29.51;56.57
9091;BME280;4581;42.416;25.598;2022-09-17T09:35:31;97309.56;;;29.49;54.14
9091;BME280;4581;42.416;25.598;2022-09-17T09:41:30;97296.09;;;30.03;51.76
9091;BME280;4581;42.416;25.598;2022-09-17T09:44:11;97287.41;;;30.13;53.30
9091;BME280;4581;42.416;25.598;2022-09-17T09:49:50;97264.25;;;30.30;52.72
9091;BME280;4581;42.416;25.598;2022-09-17T09:58:36;97252.81;;;30.31;49.05
9091;BME280;4581;42.416;25.598;2022-09-17T10:01:27;97254.94;;;30.93;47.33
9091;BME280;4581;42.416;25.598;2022-09-17T10:04:27;97269.94;;;31.09;48.08
9091;BME280;4581;42.416;25.598;2022-09-17T10:07:06;97265.28;;;30.63;47.03
9091;BME280;4581;42.416;25.598;2022-09-17T10:09:37;97230.38;;;30.65;47.82
9091;BME280;4581;42.416;25.598;2022-09-17T10:12:15;97258.78;;;31.09;48.94
9091;BME280;4581;42.416;25.598;2022-09-17T10:14:45;97257.91;;;31.17;47.02
9091;BME280;4581;42.416;25.598;2022-09-17T10:17:25;97253.59;;;30.99;48.25
9091;BME280;4581;42.416;25.598;2022-09-17T10:22:31;97247.66;;;31.63;45.09
9091;BME280;4581;42.416;25.598;2022-09-17T10:25:00;97262.47;;;31.75;45.29
9091;BME280;4581;42.416;25.598;2022-09-17T10:27:29;97260.50;;;31.76;45.09
9091;BME280;4581;42.416;25.598;2022-09-17T10:32:34;97248.97;;;32.10;43.77
9091;BME280;4581;42.416;25.598;2022-09-17T10:35:24;97249.13;;;32.62;43.70
9091;BME280;4581;42.416;25.598;2022-09-17T10:37:52;97203.56;;;32.22;41.75
9091;BME280;4581;42.416;25.598;2022-09-17T10:42:47;97231.81;;;32.32;42.89
9091;BME280;4581;42.416;25.598;2022-09-17T10:45:29;97231.78;;;32.20;42.68
9091;BME280;4581;42.416;25.598;2022-09-17T10:48:01;97229.88;;;32.00;42.81
9091;BME280;4581;42.416;25.598;2022-09-17T10:50:33;97221.19;;;32.01;43.27
9091;BME280;4581;42.416;25.598;2022-09-17T10:53:15;97226.59;;;31.98;42.42
9091;BME280;4581;42.416;25.598;2022-09-17T11:07:07;97195.19;;;32.34;43.32
9091;BME280;4581;42.416;25.598;2022-09-17T11:12:56;97207.06;;;31.86;42.95
9091;BME280;4581;42.416;25.598;2022-09-17T11:29:15;97173.81;;;31.36;45.18
9091;BME280;4581;42.416;25.598;2022-09-17T11:32:20;97162.75;;;31.27;47.12
9091;BME280;4581;42.416;25.598;2022-09-17T11:34:59;97173.41;;;31.13;45.98
9091;BME280;4581;42.416;25.598;2022-09-17T11:37:41;97199.38;;;30.76;46.62
9091;BME280;4581;42.416;25.598;2022-09-17T11:41:03;97203.03;;;30.38;47.09
9091;BME280;4581;42.416;25.598;2022-09-17T11:43:26;97211.56;;;30.04;48.14
9091;BME280;4581;42.416;25.598;2022-09-17T11:46:07;97216.03;;;29.88;50.30
9091;BME280;4581;42.416;25.598;2022-09-17T11:49:00;97244.84;;;29.57;56.98
9091;BME280;4581;42.416;25.598;2022-09-17T11:51:38;97285.03;;;29.08;59.20
9091;BME280;4581;42.416;25.598;2022-09-17T11:57:30;97305.94;;;27.43;64.38
9091;BME280;4581;42.416;25.598;2022-09-17T12:00:13;97358.53;;;26.80;67.38
9091;BME280;4581;42.416;25.598;2022-09-17T12:02:59;97405.44;;;25.79;72.16
9091;BME280;4581;42.416;25.598;2022-09-17T12:05:38;97404.41;;;24.95;76.77
9091;BME280;4581;42.416;25.598;2022-09-17T12:08:41;97425.13;;;24.40;82.97
9091;BME280;4581;42.416;25.598;2022-09-17T12:11:32;97431.22;;;24.03;86.39
9091;BME280;4581;42.416;25.598;2022-09-17T12:14:05;97421.78;;;23.37;90.11
9091;BME280;4581;42.416;25.598;2022-09-17T12:16:40;97325.97;;;23.15;92.96
9091;BME280;4581;42.416;25.598;2022-09-17T12:19:56;97294.06;;;22.65;94.13
9091;BME280;4581;42.416;25.598;2022-09-17T12:22:45;97274.41;;;22.37;96.42
9091;BME280;4581;42.416;25.598;2022-09-17T12:25:17;97205.88;;;22.07;97.88
9091;BME280;4581;42.416;25.598;2022-09-17T12:27:59;97233.88;;;22.14;96.80
9091;BME280;4581;42.416;25.598;2022-09-17T12:30:34;97242.22;;;22.43;98.39
9091;BME280;4581;42.416;25.598;2022-09-17T12:58:19;97118.44;;;24.21;74.06
9091;BME280;4581;42.416;25.598;2022-09-17T13:01:02;97120.00;;;24.46;70.31
9091;BME280;4581;42.416;25.598;2022-09-17T13:03:42;97086.13;;;24.45;70.99
9091;BME280;4581;42.416;25.598;2022-09-17T13:14:17;97092.09;;;24.34;68.41
9091;BME280;4581;42.416;25.598;2022-09-17T13:20:00;97091.56;;;24.32;68.63
9091;BME280;4581;42.416;25.598;2022-09-17T13:22:29;97095.81;;;24.43;66.21
9091;BME280;4581;42.416;25.598;2022-09-17T13:25:04;97094.34;;;24.64;64.95
9091;BME280;4581;42.416;25.598;2022-09-17T13:27:35;97062.41;;;24.63;64.54
9091;BME280;4581;42.416;25.598;2022-09-17T13:30:08;97082.44;;;24.87;62.38
9091;BME280;4581;42.416;25.598;2022-09-17T13:37:52;97077.78;;;25.15;61.38
9091;BME280;4581;42.416;25.598;2022-09-17T13:40:24;97066.97;;;25.19;58.94
9091;BME280;4581;42.416;25.598;2022-09-17T13:42:54;97070.13;;;25.26;60.47
9091;BME280;4581;42.416;25.598;2022-09-17T13:45:27;97090.56;;;25.38;58.22
9091;BME280;4581;42.416;25.598;2022-09-17T13:53:07;97097.56;;;25.63;61.85
9091;BME280;4581;42.416;25.598;2022-09-17T13:55:54;97107.91;;;25.71;61.12
9091;BME280;4581;42.416;25.598;2022-09-17T13:58:44;97090.19;;;25.72;60.16
9091;BME280;4581;42.416;25.598;2022-09-17T14:01:12;97070.47;;;25.65;60.73
9091;BME280;4581;42.416;25.598;2022-09-17T14:08:47;97076.59;;;25.62;60.28
9091;BME280;4581;42.416;25.598;2022-09-17T14:16:33;97047.44;;;25.42;59.84
9091;BME280;4581;42.416;25.598;2022-09-17T14:38:30;97041.50;;;25.76;55.09
9091;BME280;4581;42.416;25.598;2022-09-17T14:44:02;97042.03;;;25.78;55.05
9091;BME280;4581;42.416;25.598;2022-09-17T14:49:22;97057.47;;;25.79;54.27
9091;BME280;4581;42.416;25.598;2022-09-17T14:51:50;97082.28;;;25.93;51.70
9091;BME280;4581;42.416;25.598;2022-09-17T14:54:28;97067.34;;;25.94;52.42
9091;BME280;4581;42.416;25.598;2022-09-17T14:57:24;97079.13;;;25.99;55.77
9091;BME280;4581;42.416;25.598;2022-09-17T14:59:53;97081.47;;;25.92;57.32
9091;BME280;4581;42.416;25.598;2022-09-17T15:02:49;97082.00;;;25.81;58.88
9091;BME280;4581;42.416;25.598;2022-09-17T15:05:26;97077.63;;;25.52;60.94
9091;BME280;4581;42.416;25.598;2022-09-17T15:16:22;97085.56;;;25.27;58.55
9091;BME280;4581;42.416;25.598;2022-09-17T15:19:00;97096.59;;;25.40;58.91
9091;BME280;4581;42.416;25.598;2022-09-17T15:21:40;97105.59;;;25.32;59.94
9091;BME280;4581;42.416;25.598;2022-09-17T15:26:42;97103.97;;;25.31;60.11
9091;BME280;4581;42.416;25.598;2022-09-17T15:29:12;97095.91;;;25.35;59.40
9091;BME280;4581;42.416;25.598;2022-09-17T15:31:41;97084.63;;;25.17;60.63
9091;BME280;4581;42.416;25.598;2022-09-17T15:34:10;97093.41;;;25.06;61.42
9091;BME280;4581;42.416;25.598;2022-09-17T15:36:38;97113.31;;;25.16;61.96
9091;BME280;4581;42.416;25.598;2022-09-17T15:39:29;97125.38;;;25.21;61.76
9091;BME280;4581;42.416;25.598;2022-09-17T15:41:59;97111.25;;;25.08;62.51
9091;BME280;4581;42.416;25.598;2022-09-17T15:44:27;97092.63;;;24.87;62.70
9091;BME280;4581;42.416;25.598;2022-09-17T15:47:36;97124.50;;;24.93;63.48
9091;BME280;4581;42.416;25.598;2022-09-17T15:50:34;97122.81;;;24.78;64.34
9091;BME280;4581;42.416;25.598;2022-09-17T15:58:36;97091.25;;;24.84;64.76
9091;BME280;4581;42.416;25.598;2022-09-17T16:09:00;97066.38;;;24.57;76.32
9091;BME280;4581;42.416;25.598;2022-09-17T16:11:29;97058.97;;;24.39;76.88
9091;BME280;4581;42.416;25.598;2022-09-17T16:13:59;97048.69;;;24.26;80.12
9091;BME280;4581;42.416;25.598;2022-09-17T16:16:32;97039.47;;;24.16;83.66
9091;BME280;4581;42.416;25.598;2022-09-17T16:19:04;97033.63;;;23.99;86.87
9091;BME280;4581;42.416;25.598;2022-09-17T16:21:34;97054.78;;;23.85;88.39
9091;BME280;4581;42.416;25.598;2022-09-17T16:24:01;97042.81;;;23.52;89.54
9091;BME280;4581;42.416;25.598;2022-09-17T16:26:32;97120.41;;;23.25;89.09
9091;BME280;4581;42.416;25.598;2022-09-17T16:29:03;97220.34;;;22.82;90.13
9091;BME280;4581;42.416;25.598;2022-09-17T16:31:32;97278.84;;;22.28;97.22
9091;BME280;4581;42.416;25.598;2022-09-17T16:33:59;97076.97;;;21.28;100.00
9091;BME280;4581;42.416;25.598;2022-09-17T16:36:26;97157.03;;;20.59;100.00
9091;BME280;4581;42.416;25.598;2022-09-17T16:38:57;97170.78;;;19.87;100.00
9091;BME280;4581;42.416;25.598;2022-09-17T16:41:26;97177.34;;;19.81;100.00
9091;BME280;4581;42.416;25.598;2022-09-17T16:43:53;97192.84;;;19.60;100.00
9091;BME280;4581;42.416;25.598;2022-09-17T16:46:21;97250.06;;;19.72;100.00
9091;BME280;4581;42.416;25.598;2022-09-17T16:48:49;97224.00;;;19.59;100.00
9091;BME280;4581;42.416;25.598;2022-09-17T16:51:16;97277.47;;;19.82;100.00
9091;BME280;4581;42.416;25.598;2022-09-17T16:53:43;97277.34;;;19.61;100.00
9091;BME280;4581;42.416;25.598;2022-09-17T16:56:13;97382.47;;;19.76;100.00
9091;BME280;4581;42.416;25.598;2022-09-17T16:58:40;97359.69;;;19.38;100.00
9091;BME280;4581;42.416;25.598;2022-09-17T17:01:12;97398.03;;;19.43;100.00
9091;BME280;4581;42.416;25.598;2022-09-17T17:03:42;97381.22;;;19.56;100.00
9091;BME280;4581;42.416;25.598;2022-09-17T17:06:20;97342.84;;;19.46;100.00
9091;BME280;4581;42.416;25.598;2022-09-17T17:08:47;97276.00;;;19.32;100.00
9091;BME280;4581;42.416;25.598;2022-09-17T17:11:14;97205.94;;;19.16;100.00
9091;BME280;4581;42.416;25.598;2022-09-17T17:13:41;97169.34;;;19.22;100.00
9091;BME280;4581;42.416;25.598;2022-09-17T17:16:11;97152.59;;;19.45;100.00
9091;BME280;4581;42.416;25.598;2022-09-17T17:18:42;97106.03;;;19.35;100.00
9091;BME280;4581;42.416;25.598;2022-09-17T17:21:23;97097.28;;;19.33;100.00
9091;BME280;4581;42.416;25.598;2022-09-17T17:23:51;97122.38;;;19.30;100.00
9091;BME280;4581;42.416;25.598;2022-09-17T17:26:18;97183.66;;;19.39;100.00
9091;BME280;4581;42.416;25.598;2022-09-17T17:28:58;97216.28;;;19.51;100.00